Time;durP1;ratioP1;P1;durP2;ratioP2;P2;SDS_P1;SDS_P2;PMS_P1;PMS_P2;Temp;Humidity;BMP_temperature;BMP_pressure;BME280_temperature;BME280_humidity;BME280_pressure;Samples;Min_cycle;Max_cycle;Signal;HPM_P1;HPM_P2
2021/04/21 00:00:17;;;;;;;50.60;38.60;;;7.00;99.90;;;;;;5024972;28;20461;-74
2021/04/21 00:02:49;;;;;;;45.27;38.80;;;7.10;99.90;;;;;;5022997;28;20456;-73
2021/04/21 00:05:16;;;;;;;43.57;38.53;;;7.10;99.90;;;;;;5020728;28;20515;-73
2021/04/21 00:07:43;;;;;;;52.70;38.70;;;7.10;99.90;;;;;;5025529;28;20522;-73
2021/04/21 00:10:11;;;;;;;46.80;38.57;;;7.20;99.90;;;;;;5023865;28;20487;-73
2021/04/21 00:12:39;;;;;;;46.60;39.97;;;7.20;99.90;;;;;;5022347;28;20526;-75
2021/04/21 00:15:10;;;;;;;45.63;40.40;;;7.10;99.90;;;;;;5020981;28;20868;-77
2021/04/21 00:17:40;;;;;;;50.43;40.40;;;7.00;99.90;;;;;;5019203;28;20465;-73
2021/04/21 00:20:09;;;;;;;44.97;37.33;;;6.80;99.90;;;;;;5017558;28;20468;-77
2021/04/21 00:22:36;;;;;;;50.07;41.23;;;6.70;99.90;;;;;;5024036;28;20590;-77
2021/04/21 00:25:05;;;;;;;52.30;39.00;;;6.70;99.90;;;;;;5026085;28;20465;-79
2021/04/21 00:27:32;;;;;;;46.40;36.80;;;6.80;99.90;;;;;;5022206;28;20903;-75
2021/04/21 00:30:04;;;;;;;36.63;32.87;;;6.70;99.90;;;;;;5023635;28;20472;-74
2021/04/21 00:32:39;;;;;;;38.07;33.03;;;6.60;99.90;;;;;;5024169;28;20496;-75
2021/04/21 00:35:08;;;;;;;40.60;35.33;;;6.50;99.90;;;;;;5022293;28;20487;-75
2021/04/21 00:37:36;;;;;;;44.43;36.70;;;6.40;99.90;;;;;;5017286;28;20464;-73
2021/04/21 00:40:06;;;;;;;40.40;32.40;;;6.30;99.90;;;;;;5017931;28;20753;-75
2021/04/21 00:42:50;;;;;;;41.30;35.20;;;6.30;99.90;;;;;;5020981;28;20465;-73
2021/04/21 00:45:18;;;;;;;46.87;38.13;;;6.30;99.90;;;;;;5019624;28;20719;-73
2021/04/21 00:47:54;;;;;;;41.07;33.07;;;6.30;99.90;;;;;;5014878;28;20578;-78
2021/04/21 00:50:26;;;;;;;40.10;34.27;;;6.20;99.90;;;;;;5027361;28;20586;-73
2021/04/21 00:53:00;;;;;;;53.53;39.40;;;6.20;99.90;;;;;;5024325;28;20464;-73
2021/04/21 00:55:33;;;;;;;50.97;39.20;;;6.20;99.90;;;;;;5022327;28;20457;-74
2021/04/21 00:58:08;;;;;;;46.93;39.83;;;6.20;99.90;;;;;;5021001;28;20516;-73
2021/04/21 01:00:37;;;;;;;51.10;40.10;;;6.20;99.90;;;;;;5022994;28;20457;-73
2021/04/21 01:03:09;;;;;;;49.53;39.27;;;6.30;99.90;;;;;;5018260;28;20956;-76
2021/04/21 01:05:41;;;;;;;55.30;41.30;;;6.20;99.90;;;;;;5020787;28;20954;-73
2021/04/21 01:08:12;;;;;;;53.80;44.47;;;6.20;99.90;;;;;;5023191;28;20549;-74
2021/04/21 01:10:44;;;;;;;41.10;35.13;;;6.20;99.90;;;;;;5024035;28;20612;-75
2021/04/21 01:13:11;;;;;;;42.83;34.77;;;6.20;99.90;;;;;;5022440;28;20457;-76
2021/04/21 01:15:40;;;;;;;41.33;36.77;;;6.10;99.90;;;;;;5020161;28;20460;-74
2021/04/21 01:18:10;;;;;;;41.20;35.03;;;6.00;99.90;;;;;;5023000;28;20464;-74
2021/04/21 01:20:45;;;;;;;42.10;34.77;;;5.90;99.90;;;;;;5023353;28;20854;-75
2021/04/21 01:23:24;;;;;;;39.63;35.33;;;5.80;99.90;;;;;;5021780;28;20526;-75
2021/04/21 01:26:02;;;;;;;49.90;37.43;;;5.80;99.90;;;;;;5021060;28;20469;-77
2021/04/21 01:28:30;;;;;;;47.77;38.80;;;5.80;99.90;;;;;;5022830;28;20499;-73
2021/04/21 01:31:00;;;;;;;43.47;36.03;;;5.80;99.90;;;;;;5021235;28;20538;-73
2021/04/21 01:33:29;;;;;;;45.80;38.27;;;5.70;99.90;;;;;;5018852;28;20490;-73
2021/04/21 01:35:59;;;;;;;49.23;39.60;;;5.60;99.90;;;;;;5023562;28;20490;-73
2021/04/21 01:38:26;;;;;;;46.47;39.03;;;5.60;99.90;;;;;;5024511;28;20464;-73
2021/04/21 01:40:57;;;;;;;44.70;37.10;;;5.60;99.90;;;;;;5020679;28;20471;-73
2021/04/21 01:43:32;;;;;;;46.10;38.90;;;5.50;99.90;;;;;;5020516;28;20467;-73
2021/04/21 01:46:02;;;;;;;53.97;40.07;;;5.40;99.90;;;;;;5019249;28;20467;-73
2021/04/21 01:48:32;;;;;;;57.60;43.10;;;5.30;99.90;;;;;;5017993;28;20496;-73
2021/04/21 01:51:03;;;;;;;57.90;40.80;;;5.40;99.90;;;;;;5024166;28;20992;-73
2021/04/21 01:53:36;;;;;;;64.07;47.00;;;5.50;99.90;;;;;;5016512;28;20469;-73
2021/04/21 01:56:07;;;;;;;60.43;45.27;;;5.60;99.90;;;;;;5020209;28;20986;-72
2021/04/21 01:58:47;;;;;;;77.03;51.00;;;5.70;99.90;;;;;;5022708;28;20484;-72
2021/04/21 02:01:23;;;;;;;56.73;43.00;;;5.70;99.90;;;;;;5021290;28;20469;-74
2021/04/21 02:03:57;;;;;;;76.80;51.00;;;5.60;99.90;;;;;;5021305;28;20471;-72
2021/04/21 02:06:47;;;;;;;82.93;54.37;;;5.70;99.90;;;;;;5018322;28;20457;-72
2021/04/21 02:09:37;;;;;;;82.07;54.70;;;5.80;99.90;;;;;;5025858;28;20468;-73
2021/04/21 02:12:16;;;;;;;86.13;52.70;;;5.90;99.90;;;;;;5018793;28;20468;-72
2021/04/21 02:14:55;;;;;;;74.57;52.60;;;5.90;99.90;;;;;;5018521;28;20798;-72
2021/04/21 02:17:30;;;;;;;76.73;50.73;;;5.80;99.90;;;;;;5020361;28;20461;-72
2021/04/21 02:20:04;;;;;;;81.63;55.03;;;5.80;99.90;;;;;;5020514;28;20473;-72
2021/04/21 02:22:38;;;;;;;73.70;50.90;;;5.80;99.90;;;;;;5013584;28;20496;-73
2021/04/21 02:25:15;;;;;;;47.20;39.30;;;5.70;99.90;;;;;;5021558;28;20461;-72
2021/04/21 02:28:03;;;;;;;75.80;53.40;;;5.60;99.90;;;;;;5018725;28;20488;-72
2021/04/21 02:30:40;;;;;;;68.00;47.50;;;5.50;99.90;;;;;;5026659;28;20461;-72
2021/04/21 02:33:15;;;;;;;53.20;43.23;;;5.40;99.90;;;;;;5018455;28;20584;-72
2021/04/21 02:35:47;;;;;;;58.30;43.50;;;5.30;99.90;;;;;;5023245;28;20518;-72
2021/04/21 02:38:28;;;;;;;67.40;46.80;;;5.30;99.90;;;;;;5020432;28;20460;-72
2021/04/21 02:41:12;;;;;;;61.73;43.90;;;5.20;99.90;;;;;;5015653;28;20462;-72
2021/04/21 02:44:07;;;;;;;66.70;47.10;;;5.10;99.90;;;;;;5011971;28;20465;-72
2021/04/21 02:46:40;;;;;;;64.30;48.17;;;5.00;99.90;;;;;;5022736;28;20484;-73
2021/04/21 02:49:21;;;;;;;77.63;52.33;;;4.90;99.90;;;;;;5019274;28;21017;-73
2021/04/21 02:52:03;;;;;;;82.00;54.77;;;5.00;99.90;;;;;;5023302;28;20536;-72
2021/04/21 02:54:42;;;;;;;73.47;49.37;;;5.10;99.90;;;;;;5016573;28;20468;-72
2021/04/21 02:57:15;;;;;;;90.60;57.10;;;5.10;99.90;;;;;;5017566;28;20863;-72
2021/04/21 02:59:48;;;;;;;83.47;57.50;;;5.10;99.90;;;;;;5021974;28;20480;-72
2021/04/21 03:02:23;;;;;;;87.07;59.63;;;5.20;99.90;;;;;;5019745;28;20467;-72
2021/04/21 03:04:52;;;;;;;89.93;58.57;;;5.30;99.90;;;;;;5016226;28;21013;-72
2021/04/21 03:07:25;;;;;;;88.80;56.80;;;5.40;99.90;;;;;;5021828;28;20489;-72
2021/04/21 03:09:54;;;;;;;84.67;55.40;;;5.30;99.90;;;;;;5018673;28;20463;-72
2021/04/21 03:12:26;;;;;;;86.17;56.07;;;5.20;99.90;;;;;;5022952;28;20468;-72
2021/04/21 03:14:58;;;;;;;99.07;62.27;;;5.20;99.90;;;;;;5023701;28;20507;-72
2021/04/21 03:17:25;;;;;;;87.27;55.67;;;5.20;99.90;;;;;;5018703;28;20479;-72
2021/04/21 03:19:56;;;;;;;86.13;59.40;;;5.30;99.90;;;;;;5018120;28;20460;-72
2021/04/21 03:22:27;;;;;;;102.43;65.80;;;5.30;99.90;;;;;;5014933;28;20480;-72
2021/04/21 03:24:59;;;;;;;89.23;59.87;;;5.30;99.90;;;;;;5023203;28;20469;-72
2021/04/21 03:27:31;;;;;;;87.83;53.53;;;5.30;99.90;;;;;;5017024;28;20519;-72
2021/04/21 03:30:02;;;;;;;82.30;54.37;;;5.20;99.90;;;;;;5024987;28;20507;-72
2021/04/21 03:32:37;;;;;;;83.07;55.10;;;5.20;99.90;;;;;;5020197;28;20489;-72
2021/04/21 03:35:06;;;;;;;98.63;58.40;;;5.10;99.90;;;;;;5021097;28;20476;-72
2021/04/21 03:37:41;;;;;;;95.23;58.67;;;5.00;99.90;;;;;;5025314;28;20495;-72
2021/04/21 03:40:11;;;;;;;85.73;57.97;;;5.00;99.90;;;;;;5024577;28;20878;-72
2021/04/21 03:42:38;;;;;;;90.13;59.00;;;5.00;99.90;;;;;;5024586;28;20467;-72
2021/04/21 03:45:06;;;;;;;90.53;60.23;;;5.00;99.90;;;;;;5020909;28;20469;-72
2021/04/21 03:47:34;;;;;;;90.03;62.20;;;5.00;99.90;;;;;;5015429;28;20572;-72
2021/04/21 03:50:03;;;;;;;90.47;59.10;;;5.00;99.90;;;;;;5019586;28;21131;-72
2021/04/21 03:52:32;;;;;;;95.60;63.10;;;5.10;99.90;;;;;;5026698;28;20460;-72
2021/04/21 03:55:00;;;;;;;95.17;61.57;;;5.10;99.90;;;;;;5025561;28;20975;-72
2021/04/21 03:57:30;;;;;;;99.77;62.50;;;5.10;99.90;;;;;;5026448;28;20492;-72
2021/04/21 03:59:59;;;;;;;71.50;52.30;;;5.10;99.90;;;;;;5022231;28;20460;-72
2021/04/21 04:02:30;;;;;;;82.40;55.87;;;5.00;99.90;;;;;;5020574;28;20464;-72
2021/04/21 04:05:01;;;;;;;90.67;58.33;;;4.90;99.90;;;;;;5027223;28;20816;-72
2021/04/21 04:07:28;;;;;;;89.10;59.07;;;4.90;99.90;;;;;;5018528;28;20507;-72
2021/04/21 04:09:58;;;;;;;84.80;56.07;;;4.90;99.90;;;;;;5028766;28;20453;-73
2021/04/21 04:12:30;;;;;;;102.00;61.93;;;4.90;99.90;;;;;;5026529;28;20456;-72
2021/04/21 04:14:58;;;;;;;101.50;61.60;;;5.00;99.90;;;;;;5026380;28;20456;-73
2021/04/21 04:17:26;;;;;;;101.57;63.27;;;5.10;99.90;;;;;;5024527;28;20461;-72
2021/04/21 04:19:54;;;;;;;99.63;61.50;;;5.20;99.90;;;;;;5026788;28;20465;-72
2021/04/21 04:22:23;;;;;;;103.70;63.67;;;5.20;99.90;;;;;;5021535;28;20469;-72
2021/04/21 04:24:52;;;;;;;106.40;67.17;;;5.30;99.90;;;;;;5018633;28;20471;-72
2021/04/21 04:27:21;;;;;;;114.37;67.87;;;5.30;99.90;;;;;;5021168;28;20492;-73
2021/04/21 04:29:49;;;;;;;108.43;64.93;;;5.40;99.90;;;;;;5026748;28;20468;-72
2021/04/21 04:32:17;;;;;;;112.20;68.47;;;5.60;99.90;;;;;;5017465;28;20528;-72
2021/04/21 04:34:45;;;;;;;109.60;68.53;;;5.70;99.90;;;;;;5026406;28;20483;-72
2021/04/21 04:37:15;;;;;;;83.17;57.23;;;5.70;99.90;;;;;;5018753;28;20461;-72
2021/04/21 04:39:42;;;;;;;90.70;57.00;;;5.70;99.90;;;;;;5014589;28;20876;-73
2021/04/21 04:42:10;;;;;;;85.10;60.57;;;5.70;99.90;;;;;;5025730;28;20460;-72
2021/04/21 04:44:40;;;;;;;91.53;61.33;;;5.70;99.90;;;;;;5018373;28;20801;-72
2021/04/21 04:47:10;;;;;;;90.70;60.80;;;5.70;99.90;;;;;;5032127;28;20463;-72
2021/04/21 04:49:43;;;;;;;99.57;61.83;;;5.90;99.90;;;;;;5018273;28;20457;-72
2021/04/21 04:52:11;;;;;;;97.47;62.00;;;6.00;99.90;;;;;;5023592;28;20523;-73
2021/04/21 04:54:40;;;;;;;101.30;65.63;;;6.10;99.90;;;;;;5022848;28;20988;-73
2021/04/21 04:57:10;;;;;;;101.63;62.77;;;6.20;99.90;;;;;;5024341;28;20473;-72
2021/04/21 04:59:37;;;;;;;93.07;61.43;;;6.40;99.90;;;;;;5026914;28;20798;-73
2021/04/21 05:02:06;;;;;;;100.00;66.53;;;6.40;99.90;;;;;;5023796;28;21024;-73
2021/04/21 05:04:37;;;;;;;113.97;72.47;;;6.50;99.90;;;;;;5024442;28;20468;-72
2021/04/21 05:07:06;;;;;;;103.23;70.27;;;6.60;99.90;;;;;;5022474;28;20524;-72
2021/04/21 05:09:40;;;;;;;99.00;65.10;;;6.70;99.90;;;;;;5022171;28;20803;-73
2021/04/21 05:12:11;;;;;;;102.67;67.00;;;6.90;99.90;;;;;;5021166;28;20469;-73
2021/04/21 05:14:39;;;;;;;106.57;68.27;;;7.00;99.90;;;;;;5023308;28;20468;-73
2021/04/21 05:17:49;;;;;;;105.27;69.30;;;7.10;99.90;;;;;;5024738;28;20464;-72
2021/04/21 05:20:57;;;;;;;116.60;72.87;;;7.20;99.90;;;;;;5024501;28;20895;-73
2021/04/21 05:24:09;;;;;;;112.17;71.53;;;7.40;99.90;;;;;;5018486;28;20463;-73
2021/04/21 05:26:56;;;;;;;105.57;69.47;;;7.50;99.90;;;;;;5010796;28;20472;-72
2021/04/21 05:29:58;;;;;;;113.50;73.90;;;7.50;99.90;;;;;;5007869;28;20500;-72
2021/04/21 05:33:01;;;;;;;116.00;71.33;;;7.60;99.90;;;;;;5023377;28;20487;-72
2021/04/21 05:36:01;;;;;;;108.63;70.40;;;7.70;99.90;;;;;;5021684;28;20512;-72
2021/04/21 05:39:20;;;;;;;109.80;69.73;;;7.80;99.90;;;;;;5020511;28;20467;-73
2021/04/21 05:42:40;;;;;;;105.77;69.43;;;7.90;99.90;;;;;;5020824;28;20458;-73
2021/04/21 05:46:00;;;;;;;107.80;65.77;;;8.00;99.90;;;;;;5026076;28;20459;-73
2021/04/21 05:49:17;;;;;;;108.77;69.40;;;8.10;99.90;;;;;;5016051;28;20997;-73
2021/04/21 05:52:00;;;;;;;118.23;76.33;;;8.20;99.90;;;;;;5022705;28;20482;-73
2021/04/21 05:55:00;;;;;;;108.70;69.60;;;8.30;99.90;;;;;;5014285;28;21020;-73
2021/04/21 05:58:12;;;;;;;105.13;70.13;;;8.40;99.90;;;;;;5024224;28;20844;-73
2021/04/21 06:01:28;;;;;;;110.17;67.17;;;8.60;99.90;;;;;;5000564;28;20464;-73
2021/04/21 06:03:57;;;;;;;102.77;67.57;;;8.60;99.90;;;;;;5022897;28;20963;-73
2021/04/21 06:06:24;;;;;;;96.00;67.47;;;8.40;99.90;;;;;;5021217;28;20464;-73
2021/04/21 06:08:50;;;;;;;103.47;68.67;;;8.40;99.90;;;;;;5022035;28;20502;-73
2021/04/21 06:11:22;;;;;;;101.50;66.73;;;8.40;99.90;;;;;;5018040;28;20469;-73
2021/04/21 06:13:58;;;;;;;102.07;70.73;;;8.50;99.90;;;;;;5023617;28;20866;-72
2021/04/21 06:16:25;;;;;;;105.93;64.63;;;8.80;99.90;;;;;;5019891;28;20470;-73
2021/04/21 06:18:55;;;;;;;119.37;70.77;;;8.90;99.90;;;;;;5024606;28;20460;-73
2021/04/21 06:21:24;;;;;;;106.80;68.97;;;8.70;99.90;;;;;;5020049;28;20516;-73
2021/04/21 06:23:52;;;;;;;104.73;75.30;;;8.60;99.90;;;;;;5021774;28;20459;-73
2021/04/21 06:26:24;;;;;;;98.50;72.17;;;8.80;99.90;;;;;;5020580;28;20455;-73
2021/04/21 06:29:01;;;;;;;115.83;73.43;;;9.10;99.90;;;;;;5020078;28;20529;-78
2021/04/21 06:31:36;;;;;;;106.50;72.43;;;9.10;99.90;;;;;;5021979;28;20475;-73
2021/04/21 06:34:03;;;;;;;106.83;69.67;;;9.10;99.90;;;;;;5019112;28;20474;-77
2021/04/21 06:36:37;;;;;;;108.90;76.67;;;9.00;99.90;;;;;;5017654;28;20480;-73
2021/04/21 06:39:04;;;;;;;106.97;73.73;;;9.00;99.90;;;;;;5022266;28;20824;-73
2021/04/21 06:41:30;;;;;;;105.00;71.43;;;9.20;99.90;;;;;;5018273;28;20514;-76
2021/04/21 06:43:57;;;;;;;101.90;69.07;;;9.30;99.90;;;;;;5019764;28;20983;-73
2021/04/21 06:46:25;;;;;;;99.90;66.10;;;9.40;99.90;;;;;;5017741;28;20541;-73
2021/04/21 06:48:53;;;;;;;103.00;68.23;;;9.50;99.90;;;;;;5020048;28;21043;-73
2021/04/21 06:51:21;;;;;;;105.03;70.30;;;9.40;99.90;;;;;;5021983;28;20949;-73
2021/04/21 06:53:50;;;;;;;101.33;72.03;;;9.40;99.90;;;;;;5016131;28;20872;-73
2021/04/21 06:56:17;;;;;;;96.40;68.53;;;9.60;99.90;;;;;;5021021;28;21025;-73
2021/04/21 06:58:45;;;;;;;103.63;72.10;;;9.60;99.90;;;;;;5024265;28;20470;-74
2021/04/21 07:01:12;;;;;;;102.33;67.60;;;9.60;99.90;;;;;;5015661;28;20455;-74
2021/04/21 07:03:41;;;;;;;95.20;68.50;;;9.70;99.90;;;;;;5022839;28;20457;-77
2021/04/21 07:06:08;;;;;;;92.80;66.27;;;9.70;99.90;;;;;;5027023;28;20815;-74
2021/04/21 07:08:38;;;;;;;94.13;64.00;;;9.80;99.90;;;;;;5018062;28;20489;-74
2021/04/21 07:11:08;;;;;;;93.57;66.90;;;9.40;99.90;;;;;;5018403;28;21043;-73
2021/04/21 07:13:41;;;;;;;94.70;62.30;;;9.30;99.90;;;;;;5021816;28;20497;-79
2021/04/21 07:16:14;;;;;;;91.63;61.90;;;9.40;99.90;;;;;;5017624;28;20912;-74
2021/04/21 07:18:45;;;;;;;94.50;66.80;;;9.30;99.90;;;;;;5011624;28;20472;-74
2021/04/21 07:21:12;;;;;;;94.40;67.77;;;9.40;99.90;;;;;;5010506;28;21024;-73
2021/04/21 07:23:45;;;;;;;89.70;64.50;;;9.30;99.90;;;;;;5013873;28;20459;-77
2021/04/21 07:26:12;;;;;;;90.27;62.73;;;9.40;99.90;;;;;;5013022;28;20560;-73
2021/04/21 07:28:39;;;;;;;91.90;65.37;;;9.70;99.90;;;;;;5011916;28;20535;-74
2021/04/21 07:31:11;;;;;;;85.40;63.50;;;9.70;99.90;;;;;;5014276;28;20466;-75
2021/04/21 07:33:39;;;;;;;88.07;62.13;;;9.60;99.90;;;;;;5011649;28;20531;-76
2021/04/21 07:36:11;;;;;;;95.20;63.57;;;9.80;99.90;;;;;;5006036;28;20477;-76
2021/04/21 07:38:42;;;;;;;89.00;61.23;;;9.60;99.90;;;;;;5012142;28;20491;-79
2021/04/21 07:41:09;;;;;;;78.57;61.67;;;9.60;99.90;;;;;;5009478;28;20486;-74
2021/04/21 07:43:42;;;;;;;89.97;61.83;;;9.90;99.90;;;;;;5012549;28;20491;-77
2021/04/21 07:46:15;;;;;;;75.63;59.00;;;10.20;99.90;;;;;;5000393;28;20851;-74
2021/04/21 07:48:46;;;;;;;81.47;60.67;;;10.20;99.90;;;;;;5012399;28;20863;-74
2021/04/21 07:51:43;;;;;;;73.43;55.83;;;10.30;99.90;;;;;;5013034;28;20465;-74
2021/04/21 07:54:21;;;;;;;78.13;55.23;;;10.50;99.90;;;;;;5009886;28;20818;-79
2021/04/21 07:56:56;;;;;;;87.33;59.53;;;10.40;99.90;;;;;;5013435;28;20477;-74
2021/04/21 07:59:26;;;;;;;83.10;58.20;;;10.30;99.90;;;;;;5015236;28;21047;-76
2021/04/21 08:01:54;;;;;;;79.20;59.67;;;10.60;99.90;;;;;;5013412;28;20478;-75
2021/04/21 08:04:23;;;;;;;75.90;58.97;;;10.90;99.90;;;;;;5012561;28;20465;-77
2021/04/21 08:06:51;;;;;;;65.90;53.67;;;11.20;99.90;;;;;;5016588;28;20463;-77
2021/04/21 08:09:18;;;;;;;73.10;53.80;;;11.50;99.90;;;;;;5011088;28;20532;-74
2021/04/21 08:11:44;;;;;;;65.27;53.10;;;11.40;99.90;;;;;;5014426;28;20461;-77
2021/04/21 08:14:11;;;;;;;63.97;51.23;;;11.60;99.90;;;;;;5020707;28;20994;-76
2021/04/21 08:16:39;;;;;;;66.80;51.13;;;11.70;99.90;;;;;;5021609;28;20829;-75
2021/04/21 08:19:14;;;;;;;60.70;48.80;;;11.90;99.90;;;;;;5020155;28;20607;-75
2021/04/21 08:21:43;;;;;;;61.20;50.37;;;11.90;99.90;;;;;;5013262;28;20458;-79
2021/04/21 08:24:13;;;;;;;63.63;52.33;;;12.00;99.90;;;;;;5017750;28;20467;-74
2021/04/21 08:26:41;;;;;;;57.33;50.20;;;12.00;99.90;;;;;;5019537;28;20465;-79
2021/04/21 08:29:09;;;;;;;62.13;51.80;;;12.40;99.90;;;;;;5019882;28;20488;-78
2021/04/21 08:31:39;;;;;;;60.37;51.67;;;12.50;99.90;;;;;;5019336;28;20530;-77
2021/04/21 08:34:06;;;;;;;62.50;49.83;;;12.70;99.90;;;;;;5010718;28;20836;-74
2021/04/21 08:36:32;;;;;;;59.23;51.80;;;12.70;99.90;;;;;;5019800;28;20905;-74
2021/04/21 08:38:59;;;;;;;63.03;52.47;;;12.90;99.90;;;;;;5022431;28;20461;-75
2021/04/21 08:41:27;;;;;;;61.00;50.40;;;13.00;99.90;;;;;;5019385;28;20472;-74
2021/04/21 08:43:55;;;;;;;61.00;49.23;;;12.90;99.90;;;;;;5014739;28;20556;-76
2021/04/21 08:46:22;;;;;;;56.47;50.27;;;13.10;99.90;;;;;;5018795;28;20460;-75
2021/04/21 08:48:50;;;;;;;61.13;49.37;;;13.30;99.90;;;;;;5014266;28;20480;-80
2021/04/21 08:51:18;;;;;;;51.90;46.33;;;13.90;99.90;;;;;;5020898;28;20847;-76
2021/04/21 08:53:51;;;;;;;52.67;47.03;;;14.40;99.90;;;;;;5024156;28;20460;-75
2021/04/21 08:56:20;;;;;;;53.70;46.47;;;15.30;99.90;;;;;;5018674;28;20565;-76
2021/04/21 08:58:48;;;;;;;47.60;42.17;;;15.80;99.90;;;;;;5014240;28;20469;-81
2021/04/21 09:01:16;;;;;;;49.80;44.60;;;16.50;99.90;;;;;;5016019;28;20469;-75
2021/04/21 09:03:44;;;;;;;49.47;44.37;;;16.80;99.90;;;;;;5019194;28;21110;-74
2021/04/21 09:06:15;;;;;;;44.83;40.33;;;16.80;99.90;;;;;;5012890;28;20629;-75
2021/04/21 09:08:42;;;;;;;44.53;40.10;;;17.60;99.90;;;;;;5018847;28;20491;-79
2021/04/21 09:11:09;;;;;;;45.00;39.67;;;17.70;99.90;;;;;;5016470;28;20570;-80
2021/04/21 09:13:35;;;;;;;43.30;36.70;;;18.40;99.90;;;;;;5017072;28;20474;-76
2021/04/21 09:16:02;;;;;;;39.20;35.43;;;18.30;99.90;;;;;;5011715;28;20516;-76
2021/04/21 09:18:30;;;;;;;34.83;31.70;;;18.20;99.90;;;;;;5017328;28;20978;-76
2021/04/21 09:20:58;;;;;;;34.63;31.37;;;18.30;99.90;;;;;;5010113;28;20472;-75
2021/04/21 09:23:25;;;;;;;32.50;29.20;;;18.10;99.90;;;;;;5021627;28;20527;-74
2021/04/21 09:25:53;;;;;;;34.57;31.13;;;18.20;99.90;;;;;;5015265;28;20822;-77
2021/04/21 09:28:21;;;;;;;32.87;29.93;;;18.80;99.90;;;;;;5019978;28;20541;-74
2021/04/21 09:30:52;;;;;;;33.70;30.70;;;19.10;99.90;;;;;;5017154;28;20465;-74
2021/04/21 09:33:19;;;;;;;35.23;31.73;;;19.10;99.90;;;;;;5012689;28;20977;-74
2021/04/21 09:35:47;;;;;;;34.70;31.30;;;18.70;99.90;;;;;;5015068;28;20848;-74
2021/04/21 09:38:15;;;;;;;33.83;30.43;;;18.50;99.90;;;;;;5016790;28;21035;-75
2021/04/21 09:40:45;;;;;;;32.50;29.70;;;18.20;99.90;;;;;;5018511;28;20464;-77
2021/04/21 09:43:17;;;;;;;35.17;31.83;;;18.40;99.90;;;;;;5018785;28;20467;-73
2021/04/21 09:45:45;;;;;;;33.77;30.57;;;18.90;99.90;;;;;;5013243;28;20476;-74
2021/04/21 09:48:15;;;;;;;33.27;30.43;;;19.20;99.90;;;;;;5016481;28;20843;-75
2021/04/21 09:50:43;;;;;;;32.30;29.37;;;19.30;99.90;;;;;;5017885;28;20519;-74
2021/04/21 09:53:29;;;;;;;33.33;30.30;;;19.30;99.90;;;;;;5012828;28;20467;-75
2021/04/21 09:56:10;;;;;;;33.10;29.83;;;19.00;99.90;;;;;;5022451;28;20870;-74
2021/04/21 09:58:39;;;;;;;33.03;29.90;;;18.70;99.90;;;;;;5022629;28;20516;-73
2021/04/21 10:01:19;;;;;;;31.17;28.13;;;18.80;99.90;;;;;;5010855;28;21414;-73
2021/04/21 10:03:46;;;;;;;29.27;26.60;;;19.00;99.90;;;;;;5009619;28;20549;-75
2021/04/21 10:06:20;;;;;;;30.33;27.83;;;18.30;99.80;;;;;;5019652;28;20998;-73
2021/04/21 10:08:47;;;;;;;30.50;27.77;;;17.90;99.90;;;;;;5011255;28;20495;-74
2021/04/21 10:11:14;;;;;;;31.10;28.20;;;17.90;99.90;;;;;;5023734;28;20820;-72
2021/04/21 10:13:43;;;;;;;26.93;24.57;;;17.70;99.90;;;;;;5013683;28;21014;-74
2021/04/21 10:16:10;;;;;;;28.80;26.30;;;18.30;99.90;;;;;;5017387;28;20847;-72
2021/04/21 10:18:37;;;;;;;30.43;27.50;;;19.00;99.20;;;;;;5019324;28;20884;-72
2021/04/21 10:21:05;;;;;;;30.20;27.50;;;19.30;98.30;;;;;;5019771;28;20516;-74
2021/04/21 10:23:32;;;;;;;29.37;26.90;;;19.80;98.40;;;;;;5018792;28;20468;-75
2021/04/21 10:26:03;;;;;;;28.73;26.30;;;20.30;98.80;;;;;;5014584;28;20472;-73
2021/04/21 10:28:31;;;;;;;27.80;25.33;;;20.30;98.20;;;;;;5012067;28;21008;-73
2021/04/21 10:30:57;;;;;;;28.00;25.20;;;20.30;96.70;;;;;;5016222;28;20503;-74
2021/04/21 10:33:27;;;;;;;27.70;25.50;;;20.30;96.80;;;;;;5015591;28;20864;-74
2021/04/21 10:35:54;;;;;;;29.10;26.00;;;20.20;96.20;;;;;;5012143;28;20484;-73
2021/04/21 10:38:23;;;;;;;26.73;24.43;;;19.60;96.50;;;;;;5013495;28;20894;-73
2021/04/21 10:40:51;;;;;;;27.77;24.63;;;19.70;95.00;;;;;;5013834;28;20477;-73
2021/04/21 10:43:39;;;;;;;29.80;25.00;;;20.20;92.60;;;;;;5013822;28;20461;-72
2021/04/21 10:46:06;;;;;;;26.20;24.17;;;20.30;93.60;;;;;;5011034;28;20500;-72
2021/04/21 10:48:40;;;;;;;27.03;24.70;;;20.40;90.30;;;;;;5017123;28;20485;-72
2021/04/21 10:51:34;;;;;;;25.37;23.50;;;20.10;87.80;;;;;;5015822;28;20504;-73
2021/04/21 10:54:02;;;;;;;23.80;21.57;;;19.70;90.00;;;;;;5016209;28;20458;-72
2021/04/21 10:56:30;;;;;;;24.70;22.80;;;20.10;90.10;;;;;;5019253;28;20485;-73
2021/04/21 10:58:59;;;;;;;25.40;23.50;;;20.10;85.60;;;;;;5014392;28;20963;-72
2021/04/21 11:01:34;;;;;;;25.10;22.80;;;20.90;84.00;;;;;;5013680;28;20460;-74
2021/04/21 11:04:01;;;;;;;24.30;22.30;;;21.50;85.30;;;;;;5012025;28;20457;-72
2021/04/21 11:06:46;;;;;;;24.87;22.90;;;22.20;86.20;;;;;;5017203;28;20547;-73
2021/04/21 11:09:14;;;;;;;24.63;22.33;;;22.90;80.50;;;;;;5011567;28;21049;-74
2021/04/21 11:11:43;;;;;;;24.60;22.43;;;23.00;76.90;;;;;;5009285;28;20699;-73
2021/04/21 11:14:14;;;;;;;24.37;22.37;;;23.40;73.80;;;;;;5008823;28;20473;-73
2021/04/21 11:16:40;;;;;;;25.07;22.90;;;22.40;78.00;;;;;;5011945;28;20499;-72
2021/04/21 11:19:31;;;;;;;22.47;20.70;;;21.70;81.90;;;;;;5016600;28;20548;-73
2021/04/21 11:22:26;;;;;;;23.33;21.57;;;20.70;81.20;;;;;;5018390;28;20472;-73
2021/04/21 11:25:25;;;;;;;23.47;21.77;;;20.10;85.50;;;;;;5007215;28;20501;-72
2021/04/21 11:27:52;;;;;;;23.93;21.80;;;19.50;82.40;;;;;;5018272;28;20466;-73
2021/04/21 11:30:53;;;;;;;20.97;19.30;;;19.10;83.20;;;;;;5010528;28;20527;-73
2021/04/21 11:33:56;;;;;;;21.87;20.17;;;19.80;82.80;;;;;;5007039;28;20541;-73
2021/04/21 11:36:52;;;;;;;22.70;20.30;;;20.10;84.40;;;;;;5009652;28;20476;-72
2021/04/21 11:42:45;;;;;;;24.47;22.03;;;20.10;81.10;;;;;;5014358;28;20536;-73
2021/04/21 11:45:26;;;;;;;23.40;21.30;;;20.70;80.20;;;;;;5011665;28;20488;-73
2021/04/21 11:47:54;;;;;;;21.93;20.43;;;20.30;84.20;;;;;;5011978;28;20780;-71
2021/04/21 11:50:32;;;;;;;22.77;21.07;;;20.70;83.80;;;;;;5019202;28;20500;-72
2021/04/21 11:53:02;;;;;;;23.70;21.47;;;21.00;78.60;;;;;;5015967;28;20465;-71
2021/04/21 11:55:34;;;;;;;24.87;22.70;;;20.80;78.20;;;;;;5021569;28;20469;-72
2021/04/21 11:58:03;;;;;;;25.63;23.40;;;20.90;80.20;;;;;;5016184;28;20503;-72
2021/04/21 12:00:32;;;;;;;24.60;22.60;;;20.40;81.80;;;;;;5011753;28;20488;-71
2021/04/21 12:03:00;;;;;;;24.70;22.40;;;21.00;79.70;;;;;;5015387;28;20460;-72
2021/04/21 12:05:29;;;;;;;24.67;22.37;;;21.40;80.60;;;;;;5019358;28;20461;-72
2021/04/21 12:07:56;;;;;;;24.57;22.50;;;21.80;77.10;;;;;;5016924;28;20464;-71
2021/04/21 12:10:29;;;;;;;22.23;20.57;;;22.70;76.30;;;;;;5018103;28;20978;-72
2021/04/21 12:13:11;;;;;;;24.00;21.87;;;23.00;70.90;;;;;;5021788;28;20468;-73
2021/04/21 12:15:37;;;;;;;22.60;20.80;;;23.10;73.60;;;;;;5020994;28;20464;-72
2021/04/21 12:18:05;;;;;;;22.97;21.30;;;24.40;69.80;;;;;;5018288;28;20515;-72
2021/04/21 12:20:32;;;;;;;23.50;21.73;;;24.50;68.60;;;;;;5015547;28;20543;-72
2021/04/21 12:22:59;;;;;;;24.17;22.27;;;24.30;67.60;;;;;;5019703;28;20840;-72
2021/04/21 12:25:28;;;;;;;22.90;21.10;;;23.10;62.70;;;;;;5019150;28;20473;-72
2021/04/21 12:27:57;;;;;;;23.70;22.03;;;22.20;63.30;;;;;;5016622;28;20472;-72
2021/04/21 12:30:28;;;;;;;24.43;22.43;;;22.70;65.30;;;;;;5017828;28;20465;-72
2021/04/21 12:32:55;;;;;;;26.50;24.10;;;22.70;64.90;;;;;;5016189;28;20496;-72
2021/04/21 12:35:23;;;;;;;26.77;24.47;;;23.40;63.70;;;;;;5013950;28;20489;-72
2021/04/21 12:37:57;;;;;;;28.73;26.23;;;23.60;66.40;;;;;;5018723;28;20465;-71
2021/04/21 12:40:27;;;;;;;29.60;26.67;;;23.70;65.90;;;;;;5015383;28;20552;-71
2021/04/21 12:43:11;;;;;;;30.13;27.40;;;23.40;66.70;;;;;;5017221;28;20515;-72
2021/04/21 12:45:39;;;;;;;27.30;24.80;;;23.70;69.20;;;;;;5017631;28;20472;-72
2021/04/21 12:48:22;;;;;;;28.63;25.93;;;24.40;69.00;;;;;;5021989;28;20511;-72
2021/04/21 12:50:49;;;;;;;28.57;25.77;;;23.60;69.00;;;;;;5017669;28;20464;-71
2021/04/21 12:53:18;;;;;;;26.17;23.87;;;22.70;68.90;;;;;;5012442;28;20462;-72
2021/04/21 12:55:45;;;;;;;27.20;24.60;;;21.60;73.40;;;;;;5016052;28;20457;-72
2021/04/21 12:58:13;;;;;;;28.40;26.00;;;20.20;77.40;;;;;;5019717;28;20469;-72
2021/04/21 13:00:40;;;;;;;28.20;25.80;;;19.10;82.00;;;;;;5015564;28;20553;-71
2021/04/21 13:03:17;;;;;;;30.87;28.20;;;18.50;82.90;;;;;;5011962;28;20664;-71